createdAt,value
2022-08-07T00:00:34.698Z,64.58
2022-08-07T00:03:37.162Z,65.30
2022-08-07T00:06:51.141Z,65.12
2022-08-07T00:10:19.318Z,65.01
2022-08-07T00:13:23.885Z,64.86
2022-08-07T00:16:29.349Z,64.76
2022-08-07T00:19:59.670Z,64.70
2022-08-07T00:22:56.751Z,64.65
2022-08-07T00:26:06.909Z,64.35
2022-08-07T00:29:26.491Z,64.25
2022-08-07T00:32:34.868Z,64.18
2022-08-07T00:35:37.473Z,64.29
2022-08-07T00:38:41.178Z,64.16
2022-08-07T00:41:53.521Z,64.29
2022-08-07T00:45:07.160Z,64.01
2022-08-07T00:48:11.217Z,63.71
2022-08-07T00:51:15.053Z,63.45
2022-08-07T00:54:19.908Z,63.02
2022-08-07T00:57:26.242Z,62.86
2022-08-07T01:00:29.245Z,62.88
2022-08-07T01:03:56.903Z,62.19
2022-08-07T01:06:57.871Z,62.28
2022-08-07T01:10:06.538Z,61.93
2022-08-07T01:13:16.434Z,62.09
2022-08-07T01:16:30.602Z,61.65
2022-08-07T01:19:34.378Z,61.25
2022-08-07T01:22:46.677Z,61.74
2022-08-07T01:25:58.368Z,61.68
2022-08-07T01:29:01.093Z,61.65
2022-08-07T01:32:05.380Z,61.41
2022-08-07T01:35:10.120Z,61.21
2022-08-07T01:38:24.793Z,61.05
2022-08-07T01:41:28.435Z,61.53
2022-08-07T01:44:31.574Z,61.37
2022-08-07T01:48:29.490Z,61.20
2022-08-07T01:51:24.509Z,61.33
2022-08-07T01:54:32.878Z,61.19
2022-08-07T01:58:06.337Z,60.98
2022-08-07T02:01:10.071Z,61.34
2022-08-07T02:04:32.003Z,61.29
2022-08-07T02:07:50.086Z,61.03
2022-08-07T02:10:58.101Z,61.19
2022-08-07T02:14:02.691Z,61.11
2022-08-07T02:17:06.919Z,61.14
2022-08-07T02:20:17.508Z,61.10
2022-08-07T02:23:26.810Z,60.67
2022-08-07T02:26:32.588Z,61.01
2022-08-07T02:29:48.601Z,60.76
2022-08-07T02:33:09.049Z,60.24
2022-08-07T02:36:30.865Z,60.64
2022-08-07T02:39:43.907Z,60.46
2022-08-07T02:43:01.137Z,60.58
2022-08-07T02:46:11.969Z,60.50
2022-08-07T02:49:55.603Z,60.85
2022-08-07T02:52:44.195Z,61.04
2022-08-07T02:56:03.915Z,61.12
2022-08-07T03:02:10.449Z,60.69
2022-08-07T03:05:20.559Z,60.84
2022-08-07T03:08:29.549Z,60.96
2022-08-07T03:11:38.522Z,61.42
2022-08-07T03:14:42.113Z,61.48
2022-08-07T03:17:53.253Z,61.47
2022-08-07T03:20:58.411Z,61.63
2022-08-07T03:24:20.592Z,62.02
2022-08-07T03:27:30.520Z,62.12
2022-08-07T03:30:34.597Z,61.71
2022-08-07T03:33:40.137Z,61.57
2022-08-07T03:36:44.417Z,61.48
2022-08-07T03:39:59.421Z,61.62
2022-08-07T03:43:03.428Z,62.48
2022-08-07T03:46:10.583Z,62.11
2022-08-07T03:49:21.218Z,61.88
2022-08-07T03:52:26.343Z,61.96
2022-08-07T03:55:52.946Z,62.19
2022-08-07T03:59:09.353Z,62.24
2022-08-07T04:02:15.028Z,61.76
2022-08-07T04:05:28.676Z,62.60
2022-08-07T04:08:42.126Z,62.46
2022-08-07T04:12:25.414Z,61.94
2022-08-07T04:15:09.527Z,62.31
2022-08-07T04:18:57.183Z,62.09
2022-08-07T04:21:58.916Z,61.90
2022-08-07T04:25:02.722Z,61.90
2022-08-07T04:28:06.936Z,61.50
2022-08-07T04:31:20.162Z,61.22
2022-08-07T04:34:27.406Z,61.77
2022-08-07T04:40:56.758Z,61.18
2022-08-07T04:44:12.443Z,61.47
2022-08-07T04:48:01.724Z,61.32
2022-08-07T04:51:18.312Z,61.81
2022-08-07T04:54:30.088Z,61.96
2022-08-07T04:58:13.160Z,61.78
2022-08-07T05:01:35.288Z,61.52
2022-08-07T05:04:50.331Z,61.48
2022-08-07T05:07:58.764Z,61.25
2022-08-07T05:11:24.514Z,61.47
2022-08-07T05:14:52.508Z,61.76
2022-08-07T05:18:01.559Z,61.08
2022-08-07T05:21:12.945Z,61.43
2022-08-07T05:24:18.026Z,61.41
2022-08-07T05:28:03.104Z,61.66
2022-08-07T05:30:47.112Z,61.60
2022-08-07T05:34:04.603Z,60.80
2022-08-07T05:37:09.215Z,61.20
2022-08-07T05:40:18.931Z,60.00
2022-08-07T05:43:49.718Z,60.25
2022-08-07T05:46:52.542Z,60.15
2022-08-07T05:49:56.854Z,60.36
2022-08-07T05:53:02.786Z,59.70
2022-08-07T05:56:08.630Z,59.62
2022-08-07T05:59:19.308Z,59.14
2022-08-07T06:02:28.852Z,58.98
2022-08-07T06:05:32.036Z,58.81
2022-08-07T06:08:37.946Z,59.21
2022-08-07T06:11:45.468Z,58.15
2022-08-07T06:14:49.913Z,57.35
2022-08-07T06:17:55.015Z,56.35
2022-08-07T06:22:14.760Z,56.52
2022-08-07T06:24:38.625Z,57.81
2022-08-07T06:28:01.071Z,57.27
2022-08-07T06:31:04.531Z,56.98
2022-08-07T06:34:08.275Z,56.76
2022-08-07T06:37:17.291Z,56.50
2022-08-07T06:40:22.912Z,57.01
2022-08-07T06:43:27.321Z,56.04
2022-08-07T06:46:43.453Z,55.22
2022-08-07T06:49:58.670Z,55.95
2022-08-07T06:53:04.437Z,54.57
2022-08-07T06:56:15.215Z,55.11
2022-08-07T07:00:11.760Z,54.75
2022-08-07T07:02:53.335Z,53.89
2022-08-07T07:06:04.356Z,53.77
2022-08-07T07:09:31.269Z,52.81
2022-08-07T07:12:37.411Z,53.52
2022-08-07T07:15:51.528Z,52.69
2022-08-07T07:19:04.066Z,53.08
2022-08-07T07:22:36.622Z,52.60
2022-08-07T07:26:34.662Z,53.02
2022-08-07T07:29:40.081Z,52.39
2022-08-07T07:32:33.818Z,53.19
2022-08-07T07:35:54.211Z,53.60
2022-08-07T07:39:03.658Z,53.49
2022-08-07T07:42:13.396Z,52.34
2022-08-07T07:45:17.418Z,52.58
2022-08-07T07:48:35.313Z,52.31
2022-08-07T07:51:57.867Z,51.13
2022-08-07T07:55:03.386Z,50.60
2022-08-07T07:58:06.367Z,50.48
2022-08-07T08:02:02.263Z,49.66
2022-08-07T08:04:33.837Z,49.74
2022-08-07T08:07:42.483Z,48.87
2022-08-07T08:11:01.472Z,48.23
2022-08-07T08:14:06.645Z,47.69
2022-08-07T08:17:32.443Z,47.91
2022-08-07T08:20:34.535Z,46.94
2022-08-07T08:23:57.440Z,46.68
2022-08-07T08:27:09.310Z,46.30
2022-08-07T08:30:14.258Z,44.86
2022-08-07T08:33:20.626Z,44.64
2022-08-07T08:36:30.085Z,44.69
2022-08-07T08:39:39.611Z,45.25
2022-08-07T08:43:15.945Z,45.37
2022-08-07T08:46:20.513Z,46.18
2022-08-07T08:49:57.198Z,45.92
2022-08-07T08:52:58.705Z,45.10
2022-08-07T08:56:06.617Z,43.85
2022-08-07T08:59:13.568Z,43.56
2022-08-07T09:02:34.694Z,41.75
2022-08-07T09:05:56.334Z,41.78
2022-08-07T09:09:09.423Z,42.10
2022-08-07T09:12:31.182Z,42.45
2022-08-07T09:16:25.228Z,41.93
2022-08-07T09:19:51.752Z,41.70
2022-08-07T09:24:32.923Z,42.29
2022-08-07T09:26:40.798Z,42.33
2022-08-07T09:30:06.372Z,42.54
2022-08-07T09:33:16.235Z,42.44
2022-08-07T09:36:37.323Z,43.21
2022-08-07T09:39:58.027Z,42.00
2022-08-07T09:43:20.309Z,41.96
2022-08-07T09:47:52.781Z,41.61
2022-08-07T09:50:19.175Z,40.96
2022-08-07T09:53:25.145Z,40.48
2022-08-07T09:56:47.023Z,40.93
2022-08-07T10:00:02.150Z,40.97
2022-08-07T10:04:05.331Z,39.89
2022-08-07T10:07:24.148Z,38.82
2022-08-07T10:10:30.692Z,40.20
2022-08-07T10:13:55.541Z,40.06
2022-08-07T10:17:13.400Z,39.73
2022-08-07T10:20:37.697Z,40.43
2022-08-07T10:24:05.581Z,40.65
2022-08-07T10:27:11.523Z,41.16
2022-08-07T10:30:17.699Z,40.75
2022-08-07T10:33:20.137Z,40.54
2022-08-07T10:36:49.812Z,40.45
2022-08-07T10:40:02.613Z,41.19
2022-08-07T10:43:11.638Z,41.24
2022-08-07T10:46:23.333Z,41.41
2022-08-07T10:49:45.314Z,41.14
2022-08-07T10:53:08.078Z,39.28
2022-08-07T10:56:21.004Z,38.61
2022-08-07T10:59:52.535Z,38.91
2022-08-07T11:03:14.759Z,39.44
2022-08-07T11:06:32.481Z,39.73
2022-08-07T11:10:08.893Z,40.05
2022-08-07T11:13:07.369Z,39.73
2022-08-07T11:16:31.448Z,40.83
2022-08-07T11:19:33.975Z,41.12
2022-08-07T11:22:45.585Z,40.37
2022-08-07T11:26:13.174Z,39.36
2022-08-07T11:29:43.068Z,39.46
2022-08-07T11:32:53.600Z,42.06
2022-08-07T11:36:11.445Z,40.88
2022-08-07T11:39:59.094Z,39.73
2022-08-07T11:43:08.309Z,37.71
2022-08-07T11:46:29.022Z,37.25
2022-08-07T11:50:11.524Z,37.01
2022-08-07T11:53:35.193Z,38.64
2022-08-07T11:56:56.452Z,39.90
2022-08-07T12:00:19.271Z,39.09
2022-08-07T12:03:45.767Z,37.62
2022-08-07T12:07:00.064Z,36.37
2022-08-07T12:10:24.040Z,36.00
2022-08-07T12:13:48.485Z,36.33
2022-08-07T12:16:54.193Z,35.66
2022-08-07T12:20:04.789Z,35.16
2022-08-07T12:23:09.406Z,35.85
2022-08-07T12:26:29.097Z,35.44
2022-08-07T12:29:43.190Z,36.24
2022-08-07T12:33:18.923Z,35.73
2022-08-07T12:36:33.271Z,36.16
2022-08-07T12:39:42.917Z,37.26
2022-08-07T12:42:55.192Z,36.77
2022-08-07T12:45:59.059Z,36.04
2022-08-07T12:49:44.275Z,35.42
2022-08-07T12:53:17.969Z,36.35
2022-08-07T12:56:29.636Z,34.63
2022-08-07T12:59:54.596Z,34.73
2022-08-07T13:03:06.747Z,34.24
2022-08-07T13:06:21.922Z,34.90
2022-08-07T13:10:19.843Z,33.48
2022-08-07T13:13:47.132Z,34.40
2022-08-07T13:16:39.204Z,34.20
2022-08-07T13:19:53.070Z,33.45
2022-08-07T13:23:00.556Z,33.34
2022-08-07T13:26:20.237Z,32.66
2022-08-07T13:29:34.682Z,34.12
2022-08-07T13:32:40.419Z,33.83
2022-08-07T13:36:00.513Z,33.69
2022-08-07T13:39:12.696Z,33.54
2022-08-07T13:42:24.833Z,33.31
2022-08-07T13:46:12.413Z,33.88
2022-08-07T13:48:58.730Z,33.73
2022-08-07T13:52:30.765Z,34.38
2022-08-07T13:55:29.457Z,35.08
2022-08-07T13:58:57.075Z,34.67
2022-08-07T14:02:07.907Z,34.35
2022-08-07T14:05:12.404Z,34.98
2022-08-07T14:08:15.648Z,34.25
2022-08-07T14:11:19.142Z,33.77
2022-08-07T14:14:28.757Z,34.46
2022-08-07T14:18:27.668Z,34.65
2022-08-07T14:20:59.417Z,34.98
2022-08-07T14:24:28.169Z,34.90
2022-08-07T14:28:10.445Z,35.71
2022-08-07T14:31:05.029Z,35.28
2022-08-07T14:34:07.666Z,35.62
2022-08-07T14:37:16.410Z,34.68
2022-08-07T14:40:26.686Z,34.76
2022-08-07T14:43:58.118Z,34.09
2022-08-07T14:50:20.584Z,35.02
2022-08-07T14:53:49.523Z,34.39
2022-08-07T14:56:48.522Z,34.67
2022-08-07T15:00:06.220Z,35.48
2022-08-07T15:03:18.620Z,35.01
2022-08-07T15:06:23.941Z,34.97
2022-08-07T15:09:57.588Z,34.73
2022-08-07T15:12:55.050Z,34.70
2022-08-07T15:16:03.257Z,35.11
2022-08-07T15:19:07.260Z,34.81
2022-08-07T15:22:16.456Z,35.33
2022-08-07T15:25:37.521Z,36.07
2022-08-07T15:28:47.296Z,35.92
2022-08-07T15:36:02.494Z,35.41
2022-08-07T15:38:51.193Z,35.64
2022-08-07T15:45:56.196Z,35.35
2022-08-07T15:49:11.991Z,35.69
2022-08-07T15:52:20.953Z,36.04
2022-08-07T15:55:24.553Z,35.33
2022-08-07T15:58:52.325Z,35.83
2022-08-07T16:02:01.920Z,35.80
2022-08-07T16:05:15.171Z,36.72
2022-08-07T16:08:32.553Z,36.31
2022-08-07T16:11:42.528Z,36.87
2022-08-07T16:14:48.769Z,36.36
2022-08-07T16:18:02.820Z,36.55
2022-08-07T16:22:01.854Z,37.41
2022-08-07T16:25:02.436Z,38.03
2022-08-07T16:29:18.458Z,37.86
2022-08-07T16:31:51.312Z,38.40
2022-08-07T16:35:56.345Z,38.32
2022-08-07T16:39:01.004Z,38.37
2022-08-07T16:42:09.942Z,38.50
2022-08-07T16:46:33.730Z,39.30
2022-08-07T16:50:26.771Z,39.40
2022-08-07T16:52:51.227Z,39.08
2022-08-07T16:55:58.873Z,39.24
2022-08-07T16:59:23.753Z,39.36
2022-08-07T17:02:53.590Z,39.76
2022-08-07T17:06:29.628Z,39.96
2022-08-07T17:10:06.314Z,39.70
2022-08-07T17:13:19.051Z,39.23
2022-08-07T17:16:25.006Z,39.83
2022-08-07T17:20:02.908Z,39.57
2022-08-07T17:22:59.759Z,39.51
2022-08-07T17:26:23.197Z,39.45
2022-08-07T17:30:13.939Z,39.11
2022-08-07T17:34:08.366Z,38.89
2022-08-07T17:36:48.998Z,39.09
2022-08-07T17:40:08.761Z,39.15
2022-08-07T17:43:18.767Z,39.20
2022-08-07T17:46:34.839Z,39.03
2022-08-07T17:49:44.736Z,38.93
2022-08-07T17:52:58.996Z,38.84
2022-08-07T17:56:28.611Z,39.39
2022-08-07T17:59:41.592Z,40.11
2022-08-07T18:02:56.671Z,39.99
2022-08-07T18:06:09.401Z,40.33
2022-08-07T18:09:48.333Z,40.71
2022-08-07T18:13:03.863Z,40.73
2022-08-07T18:16:06.458Z,40.57
2022-08-07T18:21:10.003Z,40.24
2022-08-07T18:22:33.783Z,40.38
2022-08-07T18:25:40.276Z,40.28
2022-08-07T18:29:02.774Z,40.30
2022-08-07T18:32:25.688Z,40.40
2022-08-07T18:35:57.493Z,40.49
2022-08-07T18:40:05.075Z,40.77
2022-08-07T18:42:55.505Z,41.08
2022-08-07T18:46:24.903Z,40.97
2022-08-07T18:50:30.355Z,41.11
2022-08-07T18:53:12.464Z,41.23
2022-08-07T18:56:18.188Z,41.05
2022-08-07T18:59:57.217Z,38.37
2022-08-07T19:02:58.657Z,37.20
2022-08-07T19:06:05.628Z,36.57
2022-08-07T19:09:57.158Z,36.45
2022-08-07T19:12:57.793Z,36.36
2022-08-07T19:17:01.402Z,36.60
2022-08-07T19:19:41.395Z,37.01
2022-08-07T19:22:49.658Z,37.17
2022-08-07T19:26:23.263Z,37.17
2022-08-07T19:31:03.463Z,37.42
2022-08-07T19:32:46.051Z,37.28
2022-08-07T19:35:53.229Z,37.51
2022-08-07T19:38:59.505Z,37.59
2022-08-07T19:42:08.045Z,37.52
2022-08-07T19:46:06.204Z,37.53
2022-08-07T19:49:09.382Z,37.31
2022-08-07T19:52:27.749Z,37.63
2022-08-07T19:55:56.353Z,37.62
2022-08-07T19:58:57.183Z,38.01
2022-08-07T20:02:01.909Z,38.14
2022-08-07T20:05:07.818Z,38.24
2022-08-07T20:08:19.984Z,38.20
2022-08-07T20:12:01.517Z,38.33
2022-08-07T20:14:54.213Z,38.43
2022-08-07T20:18:04.540Z,38.84
2022-08-07T20:21:14.874Z,39.38
2022-08-07T20:24:28.650Z,39.80
2022-08-07T20:27:47.441Z,39.75
2022-08-07T20:30:53.099Z,39.61
2022-08-07T20:33:57.398Z,39.67
2022-08-07T20:37:01.176Z,40.35
2022-08-07T20:40:32.926Z,40.17
2022-08-07T20:43:33.235Z,40.58
2022-08-07T20:46:44.395Z,40.37
2022-08-07T20:49:58.975Z,40.45
2022-08-07T20:53:03.569Z,40.66
2022-08-07T20:56:12.989Z,40.56
2022-08-07T21:00:04.860Z,40.53
2022-08-07T21:03:03.750Z,40.46
2022-08-07T21:06:25.866Z,40.47
2022-08-07T21:09:52.154Z,40.62
2022-08-07T21:12:56.642Z,40.67
2022-08-07T21:16:06.684Z,41.06
2022-08-07T21:19:14.087Z,41.54
2022-08-07T21:22:19.470Z,42.01
2022-08-07T21:25:56.507Z,41.61
2022-08-07T21:29:12.886Z,42.25
2022-08-07T21:32:44.240Z,42.00
2022-08-07T21:36:03.900Z,41.83
2022-08-07T21:39:45.090Z,41.84
2022-08-07T21:42:48.303Z,41.53
2022-08-07T21:46:10.863Z,41.95
2022-08-07T21:50:02.807Z,41.74
2022-08-07T21:53:07.662Z,41.69
2022-08-07T21:56:36.017Z,41.91
2022-08-07T22:00:05.418Z,42.30
2022-08-07T22:03:16.587Z,42.91
2022-08-07T22:06:30.079Z,42.72
2022-08-07T22:09:38.062Z,43.55
2022-08-07T22:13:09.180Z,43.02
2022-08-07T22:16:45.429Z,42.36
2022-08-07T22:20:05.762Z,42.69
2022-08-07T22:23:15.378Z,42.93
2022-08-07T22:26:24.529Z,43.02
2022-08-07T22:29:48.270Z,43.46
2022-08-07T22:33:09.753Z,43.55
2022-08-07T22:36:26.655Z,43.75
2022-08-07T22:39:51.708Z,44.01
2022-08-07T22:43:07.388Z,44.83
2022-08-07T22:47:02.875Z,44.75
2022-08-07T22:50:00.826Z,45.38
2022-08-07T22:53:17.976Z,45.59
2022-08-07T22:56:43.661Z,45.39
2022-08-07T22:59:53.623Z,45.30
2022-08-07T23:03:16.710Z,45.26
2022-08-07T23:06:34.141Z,45.58
2022-08-07T23:10:03.810Z,45.27
2022-08-07T23:14:09.144Z,45.42
2022-08-07T23:17:02.849Z,46.27
2022-08-07T23:20:52.784Z,46.55
2022-08-07T23:24:05.145Z,46.74
2022-08-07T23:27:33.550Z,46.93
2022-08-07T23:34:35.023Z,47.49
2022-08-07T23:38:01.044Z,46.89
2022-08-07T23:41:17.049Z,46.71
2022-08-07T23:44:24.736Z,47.26
2022-08-07T23:47:48.777Z,45.75
2022-08-07T23:51:04.341Z,45.97
2022-08-07T23:54:52.140Z,45.79
2022-08-07T23:58:01.300Z,45.69
